Topeka, Kansas
Current Conditions -  °F | °C
As of 5:53 AM on Sunday 23 Nov 2014 (Local Time) from KTOP Reporting Station
Overcast Overcast  
Wind Chill: 13°   Ceiling: 600
Heat Index: 13°   Visibility: 7mi
Dew Point: 12°   Wind: 9mph
Humidity: 96%   Direction: 150°SSE
Pressure: 29.51"   Gusts: NA
Location:  39.06°N, 95.68°W
Report Text: KTOP 231153Z AUTO 15008KT 7SM OVC006 13/12 A2951 RMK AO2 SLP991 60002 70002 T01280122 10139 20128 56025
Loading
Personal Weather Stations






























Interactive Weather Map New forecast layout! Learn more

10-Day Weather Forecast

Advertisements
Track Severe Weather on mobile